GMT,Max TemperatureF,Mean TemperatureF,Min TemperatureF,Max Dew PointF,MeanDew PointF,Min DewpointF,Max Humidity, Mean Humidity, Min Humidity, Max Sea Level PressureIn, Mean Sea Level PressureIn, Min Sea Level PressureIn, Max VisibilityMiles, Mean VisibilityMiles, Min VisibilityMiles, Max Wind SpeedMPH, Mean Wind SpeedMPH, Max Gust SpeedMPH,PrecipitationIn, CloudCover, Events, WindDirDegrees
2012-12-1,37,30,24,36,30,25,100,91,80,29.95,29.92,29.89,6,4,2,10,6,,0.00,5,Rain,280
2012-12-2,37,34,30,30,28,25,93,82,70,30.01,29.98,29.95,6,6,6,10,8,,0.00,3,,274
2012-12-3,46,40,33,45,37,30,100,89,76,29.92,29.71,29.62,6,4,0,14,9,,0.00,6,Rain,240
2012-12-4,42,36,30,37,33,28,93,86,76,29.59,29.58,29.56,6,6,6,16,8,,0.00,3,Rain,273
2012-12-5,35,30,26,32,29,25,100,89,75,29.98,29.74,29.59,6,5,1,13,6,,0.00,5,Snow,314
2012-12-6,39,30,21,37,27,19,93,86,75,30.04,29.88,29.42,6,6,4,18,8,,0.00,7,Rain,221
2012-12-7,41,37,33,37,34,32,100,85,70,29.98,29.55,29.39,6,6,1,21,15,36,0.00,6,Rain-Snow,308
2012-12-8,41,37,33,37,34,32,100,89,75,30.27,30.19,29.98,6,5,0,10,7,,0.00,6,Fog-Rain,289
2012-12-9,46,42,37,39,37,34,93,81,66,30.18,30.03,29.95,6,6,6,18,11,31,0.00,4,Rain,277
2012-12-10,41,36,30,36,33,30,100,88,81,30.33,30.16,30.01,6,6,6,15,11,,0.00,4,Rain,328
2012-12-11,32,28,24,30,28,23,100,96,93,30.42,30.37,30.30,6,1,0,9,6,,0.00,7,Fog,324
2012-12-12,32,26,19,32,26,18,100,94,86,30.30,30.10,29.89,6,3,0,8,4,,0.00,6,Fog-Snow,183
2012-12-13,32,28,23,32,26,21,100,91,80,29.89,29.69,29.53,6,4,1,8,6,,0.00,6,,97
2012-12-14,50,41,32,46,40,32,100,93,81,29.50,29.08,28.80,6,3,0,34,15,37,0.00,7,Fog-Rain,156
2012-12-15,50,46,42,45,42,39,100,89,81,29.42,29.26,29.06,6,6,6,18,14,,0.00,4,,211
2012-12-16,46,40,35,43,39,36,100,92,81,29.56,29.50,29.44,6,6,5,12,8,,0.00,3,Rain,205
2012-12-17,46,40,35,41,38,36,100,91,76,29.65,29.54,29.44,6,5,4,13,9,,0.00,3,Rain,227
2012-12-18,44,40,35,41,39,34,100,91,81,30.12,29.94,29.68,6,5,0,10,7,,0.00,6,Fog-Rain,307
2012-12-19,42,38,33,41,38,32,100,94,81,30.12,30.03,29.86,6,2,0,18,9,,0.00,7,Fog-Rain-Snow,123
2012-12-20,46,44,41,46,43,41,100,98,93,29.83,29.60,29.47,6,4,1,20,16,,0.00,8,Rain,134
2012-12-21,46,42,37,45,41,37,100,94,81,29.95,29.79,29.59,6,5,2,10,8,,0.00,4,Fog,238
2012-12-22,53,47,41,54,47,39,100,97,93,29.92,29.66,29.50,6,5,1,17,10,,0.00,7,Fog-Rain,188
2012-12-23,55,50,46,54,47,43,100,86,71,29.71,29.61,29.50,6,6,3,22,16,34,0.00,5,Rain,238
2012-12-24,51,48,44,50,45,43,100,93,87,29.71,29.48,29.27,6,5,2,25,12,38,0.00,6,Rain,199
2012-12-25,46,44,41,46,41,37,100,89,81,29.59,29.38,29.24,6,6,3,21,11,,0.00,6,Rain,222
2012-12-26,48,42,35,46,40,34,100,91,76,29.74,29.61,29.47,6,6,3,21,11,36,0.00,4,Rain,228
2012-12-27,44,42,39,43,40,37,100,89,81,30.12,29.67,29.44,6,6,3,16,12,,0.00,6,Rain,262
2012-12-28,51,44,37,50,44,36,100,93,88,30.15,29.99,29.83,6,5,1,24,10,32,0.00,7,Rain,196
2012-12-29,51,46,41,48,44,37,94,83,76,29.83,29.61,29.44,6,6,4,28,22,37,0.00,6,Rain,210
2012-12-30,50,44,39,45,38,34,93,83,76,29.86,29.78,29.62,6,6,2,22,16,,0.00,4,Rain,230
2012-12-31,51,48,46,48,46,45,100,89,76,29.80,29.58,29.42,6,6,2,26,20,38,0.00,6,Rain,219